Airfield :
LOGIN :

Register | Disclaimer

   EN    FR    IT 

 










Legend :    VFR   Marginal VFR   IFR   Intensive IFR   Very Intensive IFR
Visi :
Ceiling :
>= 8 km
>= 3000ft
5 to 8 km
1000 to 3000 ft
1500m to 5 km
500 to 1000 ft
800 to 1500m
200 to 500 ft
< 800m
< 200 ft
Symbols :   Thunderstorms  Fog  Heavy snow  Heavy precipitations  Wind > 20 kt
SIGMETs :     Misc.  Thunderstorms  Icing  Turbulence  Mountain Waves  Volcanic Ashes







- Airport Elevation : 124 ft
- IATA code : AVN
- Download approach charts


LFMV - Avignon Caumont

CURRENT METAR :
  • 192000Z AUTO 16007KT CAVOK 20/11 Q1014 NOSIG

EXPIRED METARs :
  • 191930Z AUTO 17006KT CAVOK 20/11 Q1014 NOSIG
  • 191900Z AUTO VRB02KT CAVOK 20/11 Q1013 NOSIG
  • 191830Z AUTO VRB02KT CAVOK 21/10 Q1013 NOSIG
  • 191800Z AUTO 19004KT CAVOK 21/11 Q1013 NOSIG
  • 191730Z AUTO 15003KT 110V170 CAVOK 21/10 Q1012 NOSIG

TAF TAF LFMV
Valid from the 19 at 15:00 until the 20 at 15:00 UTC


191400Z 1915/2015 14015KT CAVOK
BECMG 1915/1918 14010KT BKN040
BECMG 1918/1921 VRB05KT
TEMPO 2012/2015 24007KT
ATIS : +33 4 90 84 32 84
No reported NOTAMs for that airfield.
1 SIGMET reported for the Marseille FIR (LFMM) :
 
Embedded thunderstorms
LFMM SIGMET 14 VALID 191900/192100 LFPW
LFMM MARSEILLE FIR/UIR EMBD TS OBS WI N3900 E00700 - N3900 E00430 - N4200 E00430 - N4215 E00230 - N4345 E00245 - N4345 E00300 - N4115 E00600 TOP FL370 STNR NC=



MET'MAP, your aeronautical weather chart ! - Copyright ORBIFLY December 2007 - Disclaimer

ORBIFLY MET'MAP TEAM :

Programming & Development : Alexandra Zaïnal
Concept & Development : Baudouin d'Aumeries
Co-Development & Prog : Marc-Olivier Méhu
Technical & hardware support : Manuel Goepfert

Contact : metmap@orbifly.com




SOURCES & CREDITS :

   NOAA